Time;durP1;ratioP1;P1;durP2;ratioP2;P2;SDS_P1;SDS_P2;PMS_P1;PMS_P2;Temp;Humidity;BMP_temperature;BMP_pressure;BME280_temperature;BME280_humidity;BME280_pressure;Samples;Min_cycle;Max_cycle;Signal;HPM_P1;HPM_P2
2021/01/20 00:01:58;;;;;;;16.90;13.95;;;8.30;92.20;;;;;;5047035;28;20168;-65
2021/01/20 00:04:24;;;;;;;18.48;13.95;;;8.20;92.40;;;;;;5047547;28;20060;-65
2021/01/20 00:06:50;;;;;;;18.85;13.75;;;8.30;92.10;;;;;;5046627;28;20045;-65
2021/01/20 00:09:17;;;;;;;16.85;13.43;;;8.30;92.30;;;;;;5046977;28;20057;-65
2021/01/20 00:11:43;;;;;;;17.08;12.63;;;8.20;92.50;;;;;;5047112;28;20047;-65
2021/01/20 00:14:14;;;;;;;12.98;11.50;;;8.20;92.30;;;;;;5046767;28;20068;-65
2021/01/20 00:16:41;;;;;;;17.50;13.40;;;8.30;92.30;;;;;;5028621;28;20056;-65
2021/01/20 00:19:08;;;;;;;15.40;12.00;;;8.10;92.40;;;;;;5046452;28;20061;-65
2021/01/20 00:21:34;;;;;;;17.73;11.35;;;8.30;92.10;;;;;;5046716;28;20045;-65
2021/01/20 00:24:00;;;;;;;15.00;10.32;;;8.20;92.40;;;;;;5046830;28;20076;-65
2021/01/20 00:26:26;;;;;;;13.27;10.75;;;8.10;92.10;;;;;;5046192;28;20038;-65
2021/01/20 00:28:52;;;;;;;16.42;12.05;;;8.30;92.10;;;;;;5046528;28;20127;-65
2021/01/20 00:31:17;;;;;;;14.15;12.07;;;8.20;92.10;;;;;;5046205;28;20100;-65
2021/01/20 00:33:43;;;;;;;16.05;12.50;;;7.90;92.90;;;;;;5046580;28;20051;-65
2021/01/20 00:36:09;;;;;;;14.50;12.95;;;7.90;92.70;;;;;;5062297;28;20053;-65
2021/01/20 00:38:35;;;;;;;14.50;11.68;;;7.90;92.70;;;;;;5046104;28;20100;-65
2021/01/20 00:41:02;;;;;;;20.48;13.43;;;8.00;92.20;;;;;;5059638;28;20056;-65
2021/01/20 00:43:29;;;;;;;14.82;12.18;;;8.00;92.60;;;;;;5046276;28;20049;-65
2021/01/20 00:45:56;;;;;;;14.88;11.60;;;8.10;92.50;;;;;;5046178;28;20049;-65
2021/01/20 00:48:21;;;;;;;15.70;10.82;;;8.20;92.10;;;;;;5045826;28;20042;-65
2021/01/20 00:50:47;;;;;;;15.07;12.23;;;8.40;91.80;;;;;;5046339;28;20053;-65
2021/01/20 00:53:13;;;;;;;14.95;13.40;;;8.30;91.60;;;;;;5046206;28;20099;-65
2021/01/20 00:55:40;;;;;;;15.00;13.30;;;8.20;92.00;;;;;;5045934;28;20140;-65
2021/01/20 00:58:05;;;;;;;17.98;12.25;;;8.00;92.40;;;;;;5041711;28;20046;-65
2021/01/20 01:00:31;;;;;;;17.00;12.55;;;8.00;92.80;;;;;;5038243;28;20080;-65
2021/01/20 01:02:57;;;;;;;17.23;12.70;;;8.10;92.00;;;;;;5059459;28;20046;-65
2021/01/20 01:05:23;;;;;;;16.83;11.82;;;8.00;91.90;;;;;;5057668;28;20041;-65
2021/01/20 01:07:48;;;;;;;14.73;12.77;;;8.10;91.90;;;;;;5047252;28;20034;-65
2021/01/20 01:10:15;;;;;;;13.25;10.52;;;7.90;92.10;;;;;;5046052;28;20057;-65
2021/01/20 01:12:40;;;;;;;15.68;11.60;;;8.10;91.80;;;;;;5046033;28;20107;-65
2021/01/20 01:15:07;;;;;;;14.43;11.90;;;8.00;91.80;;;;;;5045739;28;20136;-65
2021/01/20 01:17:33;;;;;;;17.48;12.10;;;7.90;92.20;;;;;;5044881;28;20160;-65
2021/01/20 01:19:58;;;;;;;19.27;13.15;;;8.00;91.70;;;;;;5045542;28;20045;-65
2021/01/20 01:22:24;;;;;;;17.08;12.88;;;8.20;91.20;;;;;;5045633;28;20513;-65
2021/01/20 01:24:50;;;;;;;14.05;8.98;;;7.90;91.90;;;;;;5045581;28;20049;-65
2021/01/20 01:27:16;;;;;;;15.43;11.00;;;8.10;91.70;;;;;;5045403;28;20473;-65
2021/01/20 01:29:42;;;;;;;17.23;12.40;;;8.10;91.30;;;;;;5045255;28;20104;-65
2021/01/20 01:32:07;;;;;;;17.40;13.35;;;8.10;91.60;;;;;;5045467;28;20041;-65
2021/01/20 01:34:33;;;;;;;17.05;12.38;;;8.10;91.50;;;;;;5045316;28;20050;-65
2021/01/20 01:36:59;;;;;;;13.77;11.85;;;7.90;91.90;;;;;;5045291;28;20053;-65
2021/01/20 01:39:25;;;;;;;16.90;12.40;;;7.90;92.10;;;;;;5045047;28;20115;-65
2021/01/20 01:41:51;;;;;;;15.68;12.45;;;7.90;92.20;;;;;;5044840;28;20055;-65
2021/01/20 01:44:18;;;;;;;18.20;13.02;;;7.80;92.00;;;;;;5045369;28;20069;-65
2021/01/20 01:46:44;;;;;;;16.70;11.75;;;7.90;92.20;;;;;;5050918;28;20076;-64
2021/01/20 01:49:11;;;;;;;17.65;12.23;;;8.10;91.60;;;;;;5052206;28;20132;-65
2021/01/20 01:51:37;;;;;;;19.73;13.20;;;8.10;91.60;;;;;;5045300;28;20045;-65
2021/01/20 01:54:04;;;;;;;19.50;14.48;;;7.80;92.10;;;;;;5045164;28;20129;-65
2021/01/20 01:56:30;;;;;;;16.40;12.07;;;7.70;92.30;;;;;;5045131;28;20429;-65
2021/01/20 01:58:57;;;;;;;15.52;11.85;;;7.60;92.60;;;;;;5034382;28;20046;-65
2021/01/20 02:01:23;;;;;;;17.40;12.75;;;7.70;92.50;;;;;;5043235;28;20057;-65
2021/01/20 02:03:49;;;;;;;14.75;11.85;;;7.80;92.30;;;;;;5045208;28;20046;-65
2021/01/20 02:06:15;;;;;;;17.77;12.80;;;7.80;92.10;;;;;;5044887;28;20625;-64
2021/01/20 02:08:42;;;;;;;14.52;11.18;;;7.80;91.80;;;;;;5044555;28;20045;-65
2021/01/20 02:11:27;;;;;;;19.05;12.82;;;8.10;91.30;;;;;;5044888;28;20064;-65
2021/01/20 02:14:02;;;;;;;14.88;10.02;;;7.90;91.60;;;;;;5045082;28;20069;-65
2021/01/20 02:16:29;;;;;;;17.08;12.52;;;7.90;91.80;;;;;;5032057;28;20053;-65
2021/01/20 02:18:57;;;;;;;14.70;10.40;;;7.80;91.90;;;;;;5045191;28;20048;-65
2021/01/20 02:21:59;;;;;;;21.15;13.57;;;8.00;91.40;;;;;;5044753;28;20045;-65
2021/01/20 02:24:41;;;;;;;17.02;12.15;;;7.90;91.40;;;;;;5044393;28;20056;-66
2021/01/20 02:27:18;;;;;;;16.20;13.10;;;8.00;91.20;;;;;;5044764;28;20050;-65
2021/01/20 02:30:08;;;;;;;13.80;10.02;;;7.80;91.60;;;;;;5044588;28;20056;-65
2021/01/20 02:32:35;;;;;;;16.25;11.10;;;8.00;91.20;;;;;;5044724;28;20061;-65
2021/01/20 02:35:03;;;;;;;17.25;12.45;;;8.00;91.20;;;;;;5044653;28;20045;-65
2021/01/20 02:37:31;;;;;;;14.70;11.85;;;8.00;91.00;;;;;;5049065;28;20049;-65
2021/01/20 02:39:58;;;;;;;17.80;12.48;;;8.00;91.70;;;;;;5053365;28;20057;-65
2021/01/20 02:42:24;;;;;;;16.63;11.85;;;7.90;91.70;;;;;;5044951;28;20569;-65
2021/01/20 02:44:50;;;;;;;17.55;11.18;;;8.00;91.70;;;;;;5044744;28;20082;-65
2021/01/20 02:47:16;;;;;;;15.95;12.18;;;7.70;92.20;;;;;;5044523;28;20453;-65
2021/01/20 02:49:42;;;;;;;17.20;11.98;;;7.80;92.20;;;;;;5059560;28;20056;-65
2021/01/20 02:52:37;;;;;;;19.63;12.60;;;7.70;92.50;;;;;;5044591;28;20052;-65
2021/01/20 02:55:06;;;;;;;13.20;9.68;;;7.70;92.80;;;;;;5046214;28;20050;-65
2021/01/20 02:57:33;;;;;;;17.98;11.70;;;7.90;92.10;;;;;;5047986;28;20056;-66
2021/01/20 03:00:01;;;;;;;14.95;12.70;;;7.80;92.00;;;;;;5034684;28;20421;-65
2021/01/20 03:02:29;;;;;;;17.20;8.40;;;7.50;92.60;;;;;;5048066;28;20052;-65
2021/01/20 03:04:58;;;;;;;14.23;10.00;;;8.00;91.90;;;;;;5048048;28;20045;-65
2021/01/20 03:07:26;;;;;;;14.45;10.63;;;7.80;91.70;;;;;;5048270;28;20075;-65
2021/01/20 03:09:52;;;;;;;18.60;12.32;;;7.80;91.70;;;;;;5041238;28;20109;-65
2021/01/20 03:12:29;;;;;;;15.27;11.30;;;7.60;92.30;;;;;;5054514;28;20045;-65
2021/01/20 03:14:57;;;;;;;18.35;11.50;;;7.60;92.30;;;;;;5036360;28;20109;-65
2021/01/20 03:17:26;;;;;;;16.42;12.52;;;7.80;91.80;;;;;;5048243;28;20047;-65
2021/01/20 03:19:52;;;;;;;15.38;11.82;;;7.70;91.90;;;;;;5047676;28;20136;-65
2021/01/20 03:22:18;;;;;;;16.30;11.48;;;7.70;92.00;;;;;;5047847;28;20044;-65
2021/01/20 03:24:43;;;;;;;18.05;11.25;;;7.60;92.00;;;;;;5047722;28;20057;-65
2021/01/20 03:27:09;;;;;;;14.68;11.38;;;7.60;92.20;;;;;;5063051;28;20132;-65
2021/01/20 03:29:36;;;;;;;17.70;10.60;;;7.50;92.20;;;;;;5054443;28;20061;-65
2021/01/20 03:32:02;;;;;;;12.70;10.15;;;7.70;92.10;;;;;;5053828;28;20041;-65
2021/01/20 03:34:28;;;;;;;13.90;10.43;;;7.80;91.80;;;;;;5047709;28;20065;-65
2021/01/20 03:36:53;;;;;;;14.38;10.65;;;7.70;92.00;;;;;;5060709;28;20056;-65
2021/01/20 03:39:19;;;;;;;15.25;11.68;;;7.50;92.40;;;;;;5047080;28;20049;-65
2021/01/20 03:41:45;;;;;;;14.90;10.32;;;7.60;92.00;;;;;;5047334;28;20081;-65
2021/01/20 03:44:11;;;;;;;15.38;11.43;;;7.70;91.80;;;;;;5047376;28;20048;-65
2021/01/20 03:46:37;;;;;;;16.10;11.73;;;7.50;92.40;;;;;;5047561;28;20069;-65
2021/01/20 03:49:03;;;;;;;13.95;10.73;;;7.70;92.20;;;;;;5052321;28;20037;-65
2021/01/20 03:51:29;;;;;;;13.73;10.23;;;7.50;92.20;;;;;;5055308;28;20041;-65
2021/01/20 03:53:56;;;;;;;14.48;9.85;;;7.70;92.00;;;;;;5060441;28;20071;-65
2021/01/20 03:56:22;;;;;;;15.10;9.63;;;7.90;91.60;;;;;;5046760;28;20056;-65
2021/01/20 03:58:48;;;;;;;17.55;10.82;;;7.70;91.80;;;;;;5041614;28;20048;-65
2021/01/20 04:01:13;;;;;;;14.35;10.80;;;7.90;91.30;;;;;;5046989;28;20042;-65
2021/01/20 04:03:39;;;;;;;13.73;10.35;;;7.60;92.10;;;;;;5064425;28;20544;-65
2021/01/20 04:06:05;;;;;;;13.85;10.38;;;7.60;92.20;;;;;;5055717;28;20057;-65
2021/01/20 04:08:31;;;;;;;14.32;10.52;;;7.60;92.30;;;;;;5046941;28;20086;-65
2021/01/20 04:10:58;;;;;;;13.18;10.45;;;7.80;91.70;;;;;;5046534;28;20081;-65
2021/01/20 04:13:23;;;;;;;15.68;10.80;;;7.60;92.10;;;;;;5056381;28;20102;-65
2021/01/20 04:15:50;;;;;;;14.50;10.77;;;7.60;91.80;;;;;;5050426;28;21540;-65
2021/01/20 04:18:16;;;;;;;15.30;8.95;;;7.70;91.60;;;;;;5046863;28;20053;-65
2021/01/20 04:20:41;;;;;;;13.13;9.63;;;7.70;92.00;;;;;;5046823;28;20133;-65
2021/01/20 04:23:07;;;;;;;13.05;8.35;;;7.70;91.90;;;;;;5029928;28;20429;-65
2021/01/20 04:25:33;;;;;;;12.45;9.43;;;7.70;91.70;;;;;;5047333;28;20110;-65
2021/01/20 04:27:59;;;;;;;12.00;8.70;;;7.60;92.00;;;;;;5046322;28;20042;-66
2021/01/20 04:30:25;;;;;;;13.27;10.18;;;7.70;91.70;;;;;;5046180;28;20143;-65
2021/01/20 04:32:51;;;;;;;12.10;9.00;;;7.70;91.60;;;;;;5046528;28;20048;-65
2021/01/20 04:35:17;;;;;;;14.75;8.32;;;7.90;91.40;;;;;;5059677;28;20073;-65
2021/01/20 04:37:43;;;;;;;12.50;8.88;;;7.80;91.50;;;;;;5046271;28;20041;-65
2021/01/20 04:40:09;;;;;;;14.02;8.98;;;7.90;91.20;;;;;;5045783;28;20111;-65
2021/01/20 04:42:35;;;;;;;12.43;8.18;;;7.70;91.80;;;;;;5053452;28;20075;-65
2021/01/20 04:45:01;;;;;;;12.85;9.38;;;7.80;91.60;;;;;;5052266;28;20056;-65
2021/01/20 04:47:28;;;;;;;12.98;9.45;;;7.70;91.50;;;;;;5028457;28;20080;-65
2021/01/20 04:49:55;;;;;;;10.55;7.63;;;7.80;91.40;;;;;;5045870;28;20049;-65
2021/01/20 04:52:22;;;;;;;9.27;7.20;;;7.90;91.40;;;;;;5032869;28;20046;-65
2021/01/20 04:54:49;;;;;;;15.88;9.98;;;7.90;91.50;;;;;;5046247;28;20509;-65
2021/01/20 04:57:15;;;;;;;10.40;6.82;;;7.70;91.80;;;;;;5045420;28;20061;-65
2021/01/20 04:59:42;;;;;;;11.63;7.32;;;8.00;91.10;;;;;;5045682;28;20045;-65
2021/01/20 05:02:13;;;;;;;11.52;8.75;;;7.80;91.60;;;;;;5045407;28;20063;-65
2021/01/20 05:04:42;;;;;;;13.75;9.77;;;7.80;91.60;;;;;;5045722;28;20068;-65
2021/01/20 05:07:08;;;;;;;12.45;9.25;;;7.90;91.60;;;;;;5033024;28;20041;-65
2021/01/20 05:09:34;;;;;;;12.45;8.90;;;7.70;92.00;;;;;;5045711;28;20064;-65
2021/01/20 05:12:01;;;;;;;12.05;7.88;;;7.80;91.90;;;;;;5032445;28;20045;-65
2021/01/20 05:14:27;;;;;;;13.98;9.52;;;7.70;92.30;;;;;;5045615;28;20048;-65
2021/01/20 05:16:54;;;;;;;14.00;8.60;;;7.70;92.10;;;;;;5044996;28;20124;-65
2021/01/20 05:19:37;;;;;;;14.32;10.45;;;7.80;92.20;;;;;;5045512;28;20080;-65
2021/01/20 05:22:05;;;;;;;14.20;10.07;;;7.70;92.20;;;;;;5053435;28;20264;-65
2021/01/20 05:24:32;;;;;;;14.30;8.70;;;7.70;92.40;;;;;;5065610;28;20069;-65
2021/01/20 05:26:58;;;;;;;11.75;8.32;;;7.70;92.30;;;;;;5065451;28;20044;-65
2021/01/20 05:29:24;;;;;;;12.95;9.40;;;7.90;92.00;;;;;;5065409;28;20111;-65
2021/01/20 05:31:50;;;;;;;13.25;9.35;;;7.90;91.80;;;;;;5065067;28;20057;-65
2021/01/20 05:34:26;;;;;;;14.18;8.85;;;7.80;92.00;;;;;;5066097;28;20413;-65
2021/01/20 05:37:07;;;;;;;14.18;9.35;;;7.90;92.10;;;;;;5076345;28;20505;-65
2021/01/20 05:39:34;;;;;;;11.20;8.70;;;7.80;91.80;;;;;;5065089;28;20059;-65
2021/01/20 05:42:05;;;;;;;11.85;9.50;;;7.80;91.80;;;;;;5064752;28;20041;-65
2021/01/20 05:44:31;;;;;;;11.38;8.80;;;7.80;92.10;;;;;;5065217;28;20056;-65
2021/01/20 05:46:57;;;;;;;11.45;8.82;;;7.80;92.10;;;;;;5064942;28;20068;-65
2021/01/20 05:49:28;;;;;;;11.18;8.02;;;7.70;92.10;;;;;;5065086;28;20045;-65
2021/01/20 05:51:55;;;;;;;10.10;7.82;;;7.70;92.10;;;;;;5064786;28;20097;-65
2021/01/20 05:54:32;;;;;;;11.60;8.90;;;7.80;92.00;;;;;;5065117;28;20055;-65
2021/01/20 05:57:09;;;;;;;9.88;7.60;;;7.70;92.00;;;;;;5064696;28;20054;-65
2021/01/20 05:59:35;;;;;;;12.35;8.05;;;7.90;91.50;;;;;;5062380;28;20045;-65
2021/01/20 06:02:02;;;;;;;12.32;7.85;;;7.90;91.80;;;;;;5057622;28;20037;-65
2021/01/20 06:04:30;;;;;;;10.88;7.72;;;8.00;91.30;;;;;;5072801;28;20048;-64
2021/01/20 06:06:56;;;;;;;11.55;7.93;;;7.90;91.60;;;;;;5065766;28;20465;-67
2021/01/20 06:09:25;;;;;;;11.90;8.27;;;7.80;91.90;;;;;;5077108;28;20041;-68
2021/01/20 06:11:51;;;;;;;11.95;7.78;;;7.90;91.70;;;;;;5065183;28;20045;-67
2021/01/20 06:14:17;;;;;;;11.43;8.13;;;7.90;91.60;;;;;;5078674;28;20040;-67
2021/01/20 06:16:45;;;;;;;9.80;7.78;;;7.90;91.40;;;;;;5053765;28;20053;-68
2021/01/20 06:19:16;;;;;;;11.75;8.32;;;7.80;91.70;;;;;;5051691;28;20052;-69
2021/01/20 06:21:44;;;;;;;10.60;6.00;;;8.00;91.20;;;;;;5056595;28;20705;-69
2021/01/20 06:24:15;;;;;;;9.00;6.20;;;8.10;90.90;;;;;;5060074;28;20086;-69
2021/01/20 06:26:56;;;;;;;8.57;6.28;;;8.20;90.70;;;;;;5055047;28;20068;-68
2021/01/20 06:29:26;;;;;;;12.55;8.00;;;8.10;90.60;;;;;;5034049;28;20065;-68
2021/01/20 06:31:53;;;;;;;9.60;7.13;;;8.10;90.80;;;;;;5062448;28;20072;-68
2021/01/20 06:34:19;;;;;;;8.90;6.85;;;8.20;90.70;;;;;;5066113;28;20045;-68
2021/01/20 06:36:45;;;;;;;9.50;6.90;;;8.20;90.40;;;;;;5072836;28;20043;-69
2021/01/20 06:39:26;;;;;;;11.65;7.03;;;8.20;90.30;;;;;;5068772;28;20083;-67
2021/01/20 06:41:52;;;;;;;10.32;6.20;;;8.30;90.30;;;;;;5075243;28;21033;-67
2021/01/20 06:44:18;;;;;;;10.30;7.13;;;8.20;90.30;;;;;;5078466;28;20122;-67
2021/01/20 06:46:56;;;;;;;7.90;6.30;;;8.50;89.80;;;;;;5077783;28;20104;-68
2021/01/20 06:49:24;;;;;;;10.18;7.03;;;8.40;90.20;;;;;;5079888;28;20116;-67
2021/01/20 06:52:12;;;;;;;9.23;6.65;;;8.40;90.00;;;;;;5072945;28;20051;-68
2021/01/20 06:54:46;;;;;;;10.15;6.75;;;8.50;89.90;;;;;;5052854;28;20420;-68
2021/01/20 06:57:30;;;;;;;8.68;6.03;;;8.30;90.50;;;;;;5063400;28;20056;-68
2021/01/20 07:00:15;;;;;;;8.35;7.22;;;8.40;90.10;;;;;;5089916;28;20052;-67
2021/01/20 07:03:01;;;;;;;10.07;7.40;;;8.30;90.40;;;;;;5067494;28;20328;-70
2021/01/20 07:05:34;;;;;;;7.25;6.18;;;8.30;90.50;;;;;;5084232;28;20767;-69
2021/01/20 07:08:01;;;;;;;8.85;7.15;;;8.40;90.70;;;;;;5076257;28;20564;-69
2021/01/20 07:10:29;;;;;;;9.38;7.05;;;8.40;90.40;;;;;;5087027;28;21298;-68
2021/01/20 07:13:19;;;;;;;11.07;7.50;;;8.40;90.40;;;;;;5073310;28;20044;-67
2021/01/20 07:15:47;;;;;;;9.85;7.22;;;8.30;90.70;;;;;;5074389;28;20064;-67
2021/01/20 07:18:14;;;;;;;11.18;6.88;;;8.40;90.50;;;;;;5065782;28;20098;-68
2021/01/20 07:20:41;;;;;;;9.60;7.25;;;8.30;90.80;;;;;;5078193;28;20048;-68
2021/01/20 07:23:07;;;;;;;10.93;7.18;;;8.20;91.10;;;;;;5067858;28;20036;-67
2021/01/20 07:25:33;;;;;;;9.98;6.47;;;8.30;90.80;;;;;;5084997;28;20128;-68
2021/01/20 07:27:59;;;;;;;8.30;5.45;;;8.30;90.70;;;;;;5071699;28;20041;-67
2021/01/20 07:30:26;;;;;;;8.18;6.05;;;8.40;90.70;;;;;;5086859;28;20041;-68
2021/01/20 07:32:51;;;;;;;10.00;6.30;;;8.40;90.90;;;;;;5049837;28;20147;-67
2021/01/20 07:35:19;;;;;;;8.05;6.50;;;8.40;90.90;;;;;;5069841;28;20056;-68
2021/01/20 07:37:45;;;;;;;8.90;6.45;;;8.40;90.90;;;;;;5066563;28;20131;-66
2021/01/20 07:40:12;;;;;;;8.05;6.13;;;8.30;91.30;;;;;;5081927;28;20099;-66
2021/01/20 07:42:41;;;;;;;8.77;5.88;;;8.50;90.90;;;;;;5051393;28;20075;-66
2021/01/20 07:45:08;;;;;;;8.73;5.87;;;8.40;91.10;;;;;;5072059;28;20114;-66
2021/01/20 07:47:46;;;;;;;6.97;5.88;;;8.30;91.30;;;;;;5049559;28;20075;-67
2021/01/20 07:50:13;;;;;;;11.07;7.45;;;8.30;91.40;;;;;;5060887;28;20131;-66
2021/01/20 07:52:40;;;;;;;10.55;6.47;;;8.20;91.60;;;;;;5050203;28;20057;-66
2021/01/20 07:55:15;;;;;;;8.73;6.68;;;8.30;91.20;;;;;;5073763;28;20056;-73
2021/01/20 07:57:42;;;;;;;8.45;6.47;;;8.20;91.30;;;;;;5050516;28;20052;-72
2021/01/20 08:00:11;;;;;;;8.88;6.32;;;8.40;91.00;;;;;;5077769;28;20486;-72
2021/01/20 08:02:47;;;;;;;7.30;5.55;;;8.50;90.70;;;;;;5050632;28;20052;-72
2021/01/20 08:05:13;;;;;;;9.57;5.93;;;8.60;90.30;;;;;;5069907;28;20037;-73
2021/01/20 08:07:38;;;;;;;9.40;5.82;;;8.60;90.20;;;;;;5056092;28;20057;-72
2021/01/20 08:10:16;;;;;;;8.45;5.93;;;8.70;89.90;;;;;;5059452;28;20045;-72
2021/01/20 08:12:43;;;;;;;8.52;5.40;;;8.60;90.10;;;;;;5072258;28;20075;-72
2021/01/20 08:15:09;;;;;;;9.38;6.10;;;8.80;89.40;;;;;;5067007;28;20080;-72
2021/01/20 08:17:35;;;;;;;8.60;6.15;;;8.70;89.40;;;;;;5059368;28;20069;-72
2021/01/20 08:20:01;;;;;;;8.73;6.75;;;8.60;90.10;;;;;;5062014;28;20071;-75
2021/01/20 08:22:27;;;;;;;8.27;5.72;;;8.70;89.70;;;;;;5054320;28;20044;-72
2021/01/20 08:24:54;;;;;;;9.43;4.63;;;8.80;89.10;;;;;;5074681;28;20044;-72
2021/01/20 08:27:30;;;;;;;9.38;5.88;;;8.70;89.30;;;;;;5050497;28;20583;-71
2021/01/20 08:29:58;;;;;;;7.30;5.70;;;8.50;89.70;;;;;;5057415;28;20060;-72
2021/01/20 08:32:24;;;;;;;9.02;5.30;;;8.40;90.10;;;;;;5073372;28;20052;-72
2021/01/20 08:34:55;;;;;;;8.02;5.10;;;8.50;89.70;;;;;;5076282;28;20041;-72
2021/01/20 08:37:35;;;;;;;7.90;5.47;;;8.80;88.40;;;;;;5058209;28;20079;-75
2021/01/20 08:40:04;;;;;;;8.73;5.85;;;8.80;88.40;;;;;;5073373;28;20060;-76
2021/01/20 08:42:35;;;;;;;6.13;4.72;;;8.60;89.00;;;;;;5073412;28;20072;-75
2021/01/20 08:45:08;;;;;;;6.43;4.93;;;8.70;88.50;;;;;;5076599;28;20415;-78
2021/01/20 08:47:43;;;;;;;8.35;5.50;;;8.70;88.60;;;;;;5074103;28;20152;-77
2021/01/20 08:50:10;;;;;;;9.57;5.28;;;8.70;88.90;;;;;;5077548;28;20546;-75
2021/01/20 08:52:44;;;;;;;7.63;5.35;;;8.60;88.90;;;;;;5076025;28;20058;-77
2021/01/20 08:55:19;;;;;;;7.25;5.10;;;8.60;89.20;;;;;;5077553;28;20049;-75
2021/01/20 08:57:45;;;;;;;5.90;4.70;;;8.60;88.70;;;;;;5076657;28;20056;-77
2021/01/20 09:00:11;;;;;;;7.63;5.43;;;8.60;89.40;;;;;;5080848;28;20079;-74
2021/01/20 09:02:37;;;;;;;7.57;5.05;;;8.60;89.30;;;;;;5079564;28;20044;-76
2021/01/20 09:05:03;;;;;;;7.25;5.05;;;8.60;89.40;;;;;;5078250;28;20067;-75
2021/01/20 09:07:29;;;;;;;5.60;4.82;;;8.70;89.10;;;;;;5071225;28;20068;-74
2021/01/20 09:09:55;;;;;;;6.13;4.32;;;8.70;88.70;;;;;;5062396;28;20045;-76
2021/01/20 09:12:21;;;;;;;7.13;4.88;;;9.00;87.60;;;;;;5074995;28;20419;-78
2021/01/20 09:14:46;;;;;;;6.38;4.90;;;8.80;88.10;;;;;;5077486;28;20099;-80
2021/01/20 09:17:12;;;;;;;6.70;4.82;;;9.10;87.30;;;;;;5064316;28;20062;-80
2021/01/20 09:19:38;;;;;;;5.95;4.65;;;9.00;87.50;;;;;;5076414;28;20402;-79
2021/01/20 09:22:04;;;;;;;5.43;4.57;;;9.00;87.60;;;;;;5054996;28;20048;-79
2021/01/20 09:24:31;;;;;;;6.40;4.70;;;9.00;87.40;;;;;;5045554;28;20052;-79
2021/01/20 09:26:57;;;;;;;6.78;3.70;;;9.10;87.40;;;;;;5062834;28;20083;-78
2021/01/20 09:29:27;;;;;;;5.63;4.55;;;9.30;86.60;;;;;;5078047;28;20136;-79
2021/01/20 09:31:55;;;;;;;2.90;2.50;;;9.10;87.00;;;;;;5062236;28;20063;-77
2021/01/20 09:34:21;;;;;;;5.72;4.40;;;9.40;86.60;;;;;;5078453;28;20040;-78
2021/01/20 09:36:47;;;;;;;7.82;5.10;;;9.40;86.00;;;;;;5061323;28;20055;-79
2021/01/20 09:39:13;;;;;;;5.70;3.95;;;9.20;87.70;;;;;;5079469;28;20040;-79
2021/01/20 09:41:39;;;;;;;5.20;4.30;;;9.50;86.00;;;;;;5059472;28;20067;-78
2021/01/20 09:44:05;;;;;;;7.30;5.38;;;9.40;86.10;;;;;;5079818;28;20044;-79
2021/01/20 09:46:31;;;;;;;5.20;3.40;;;9.50;86.40;;;;;;5035149;28;20060;-79
2021/01/20 09:48:57;;;;;;;5.40;4.07;;;9.70;85.50;;;;;;5066471;28;20040;-78
2021/01/20 09:51:22;;;;;;;6.05;4.50;;;9.40;86.70;;;;;;5051451;28;20128;-78
2021/01/20 09:53:49;;;;;;;7.18;4.95;;;9.40;87.30;;;;;;5067985;28;20123;-74
2021/01/20 09:56:14;;;;;;;9.55;5.45;;;9.60;86.60;;;;;;5056261;28;20150;-84
2021/01/20 09:58:45;;;;;;;9.20;5.07;;;9.60;86.40;;;;;;5053920;28;20289;-80
2021/01/20 10:01:11;;;;;;;9.05;5.35;;;9.60;86.10;;;;;;5045334;28;20249;-79
2021/01/20 10:03:37;;;;;;;11.52;6.22;;;9.50;87.30;;;;;;5057686;28;20071;-79
2021/01/20 10:06:03;;;;;;;11.65;6.70;;;9.70;86.30;;;;;;5064066;28;20048;-79
2021/01/20 10:08:29;;;;;;;4.80;3.85;;;9.50;87.60;;;;;;5071362;28;20106;-79
2021/01/20 10:10:54;;;;;;;10.90;6.00;;;9.50;86.90;;;;;;5058390;28;20037;-79
2021/01/20 10:13:22;;;;;;;7.13;4.47;;;9.50;87.30;;;;;;5064055;28;20139;-79
2021/01/20 10:15:48;;;;;;;5.55;4.15;;;9.50;87.30;;;;;;5057346;28;20055;-78
2021/01/20 10:18:14;;;;;;;5.43;4.25;;;9.40;87.70;;;;;;5065581;28;20048;-80
2021/01/20 10:20:40;;;;;;;5.50;4.18;;;9.50;87.00;;;;;;5072586;28;20033;-79
2021/01/20 10:23:09;;;;;;;6.75;3.90;;;9.60;87.20;;;;;;5070159;28;20074;-78
2021/01/20 10:25:35;;;;;;;5.20;4.13;;;9.50;87.70;;;;;;5059629;28;20060;-78
2021/01/20 10:28:01;;;;;;;5.28;4.32;;;9.60;87.30;;;;;;5064978;28;20063;-78
2021/01/20 10:30:27;;;;;;;5.10;4.20;;;9.60;87.40;;;;;;5067642;28;20072;-78
2021/01/20 10:32:54;;;;;;;5.32;4.00;;;9.60;87.40;;;;;;5054119;28;20049;-78
2021/01/20 10:35:20;;;;;;;6.28;3.83;;;9.50;87.30;;;;;;5065814;28;20044;-78
2021/01/20 10:37:47;;;;;;;4.78;4.28;;;9.40;88.00;;;;;;5066122;28;20049;-79
2021/01/20 10:40:14;;;;;;;5.13;3.80;;;9.50;88.10;;;;;;5047289;28;20037;-79
2021/01/20 10:42:40;;;;;;;6.43;3.83;;;9.50;87.70;;;;;;5051968;28;20096;-80
2021/01/20 10:45:06;;;;;;;3.80;3.40;;;9.30;88.70;;;;;;5046619;28;20064;-80
2021/01/20 10:47:33;;;;;;;3.72;3.22;;;9.70;87.60;;;;;;5070244;28;20079;-78
2021/01/20 10:49:59;;;;;;;4.93;3.50;;;9.40;88.40;;;;;;5069996;28;20041;-78
2021/01/20 10:52:25;;;;;;;5.22;3.88;;;9.60;87.80;;;;;;5051011;28;20077;-77
2021/01/20 10:54:52;;;;;;;5.07;3.30;;;9.50;88.00;;;;;;5068829;28;20145;-76
2021/01/20 10:57:18;;;;;;;4.43;3.60;;;9.40;88.50;;;;;;5070436;28;20127;-79
2021/01/20 10:59:43;;;;;;;6.00;3.70;;;9.50;88.10;;;;;;5077248;28;20159;-77
2021/01/20 11:02:10;;;;;;;5.43;3.50;;;9.40;88.70;;;;;;5066708;28;20124;-78
2021/01/20 11:04:36;;;;;;;3.60;3.08;;;9.40;88.10;;;;;;5086581;28;20040;-78
2021/01/20 11:07:02;;;;;;;5.60;3.70;;;9.50;88.80;;;;;;5071177;28;20052;-76
2021/01/20 11:09:30;;;;;;;3.85;3.28;;;9.40;88.80;;;;;;5083631;28;20259;-76
2021/01/20 11:11:57;;;;;;;6.72;3.45;;;9.50;88.40;;;;;;5057796;28;20058;-72
2021/01/20 11:14:24;;;;;;;4.50;3.20;;;9.40;88.80;;;;;;5070874;28;20100;-72
2021/01/20 11:16:53;;;;;;;4.93;3.25;;;9.50;88.00;;;;;;5057498;28;20056;-72
2021/01/20 11:19:19;;;;;;;6.03;3.33;;;9.60;87.30;;;;;;5070949;28;20105;-75
2021/01/20 11:21:45;;;;;;;5.18;3.28;;;9.60;87.40;;;;;;5068105;28;20540;-73
2021/01/20 11:24:11;;;;;;;4.20;3.05;;;9.60;89.00;;;;;;5089691;28;20048;-78
2021/01/20 11:26:37;;;;;;;4.15;3.45;;;9.70;87.60;;;;;;5070646;28;20036;-74
2021/01/20 11:29:03;;;;;;;5.05;3.58;;;9.60;88.50;;;;;;5093593;28;20040;-77
2021/01/20 11:31:30;;;;;;;4.82;3.40;;;9.60;87.60;;;;;;5064184;28;20037;-73
2021/01/20 11:33:56;;;;;;;3.78;2.67;;;9.90;87.00;;;;;;5073472;28;20048;-67
2021/01/20 11:36:23;;;;;;;3.88;3.10;;;9.70;87.20;;;;;;5072784;28;20076;-73
2021/01/20 11:38:49;;;;;;;4.75;2.70;;;9.80;86.50;;;;;;5048543;28;20044;-73
2021/01/20 11:41:14;;;;;;;3.55;2.88;;;9.80;86.50;;;;;;5054361;28;20433;-73
2021/01/20 11:43:40;;;;;;;5.10;3.40;;;9.70;85.80;;;;;;5081125;28;20494;-72
2021/01/20 11:46:06;;;;;;;3.45;2.58;;;9.90;85.80;;;;;;5068036;28;20052;-72
2021/01/20 11:48:32;;;;;;;4.53;2.70;;;9.90;85.20;;;;;;5082021;28;20135;-72
2021/01/20 11:50:58;;;;;;;5.00;3.05;;;10.10;84.70;;;;;;5072871;28;20052;-72
2021/01/20 11:53:23;;;;;;;5.45;2.63;;;10.20;83.60;;;;;;5075012;28;20665;-72
2021/01/20 11:55:51;;;;;;;4.07;2.88;;;10.20;83.30;;;;;;5059562;28;20591;-73
2021/01/20 11:58:17;;;;;;;3.63;2.80;;;10.00;84.40;;;;;;5049854;28;20571;-73
2021/01/20 12:00:43;;;;;;;4.47;2.85;;;10.10;82.60;;;;;;5074532;28;20075;-74
2021/01/20 12:03:10;;;;;;;4.68;2.75;;;9.90;83.90;;;;;;5081262;28;20511;-74
2021/01/20 12:05:35;;;;;;;3.42;2.35;;;10.00;83.40;;;;;;5079819;28;20055;-74
2021/01/20 12:08:02;;;;;;;4.00;2.83;;;9.90;83.40;;;;;;5072651;28;20047;-73
2021/01/20 12:10:27;;;;;;;3.35;2.47;;;9.90;82.50;;;;;;5081727;28;20052;-73
2021/01/20 12:12:53;;;;;;;3.58;2.63;;;10.10;82.00;;;;;;5055129;28;20067;-73
2021/01/20 12:15:19;;;;;;;3.50;2.55;;;10.20;82.20;;;;;;5063466;28;20137;-73
2021/01/20 12:17:45;;;;;;;4.18;2.60;;;10.10;81.10;;;;;;5059341;28;20060;-74
2021/01/20 12:20:11;;;;;;;4.35;2.72;;;10.00;81.60;;;;;;5070462;28;20603;-73
2021/01/20 12:22:37;;;;;;;5.72;2.88;;;10.10;80.60;;;;;;5053724;28;20315;-73
2021/01/20 12:25:04;;;;;;;5.20;3.03;;;10.20;80.60;;;;;;5066584;28;20192;-73
2021/01/20 12:27:31;;;;;;;8.00;3.95;;;10.10;81.00;;;;;;5069919;28;20348;-73
2021/01/20 12:30:00;;;;;;;4.05;2.90;;;10.20;79.40;;;;;;5086079;28;20052;-74
2021/01/20 12:32:27;;;;;;;10.02;4.93;;;10.10;79.40;;;;;;5054784;28;20059;-73
2021/01/20 12:34:52;;;;;;;5.10;3.00;;;10.30;78.30;;;;;;5081707;28;20055;-74
2021/01/20 12:37:19;;;;;;;7.65;3.70;;;10.20;78.00;;;;;;5068756;28;20055;-75
2021/01/20 12:39:45;;;;;;;3.97;2.42;;;10.30;78.00;;;;;;5083965;28;20475;-76
2021/01/20 12:42:11;;;;;;;3.40;2.25;;;10.50;76.00;;;;;;5048634;28;20056;-74
2021/01/20 12:44:37;;;;;;;5.90;3.50;;;10.50;75.70;;;;;;5068237;28;20036;-75
2021/01/20 12:47:02;;;;;;;3.97;2.33;;;10.50;75.20;;;;;;5046493;28;20045;-74
2021/01/20 12:49:28;;;;;;;5.88;3.88;;;10.60;74.60;;;;;;5070175;28;20133;-74
2021/01/20 12:51:54;;;;;;;3.40;2.42;;;10.50;74.60;;;;;;5059682;28;20053;-74